Caxambu, Brazil
Current Conditions -  °F | °C
As of 4:00 PM on Monday 26 Jan 2015 (Local Time) from SBGW Reporting Station
Thunderstorm Thunderstorm  
Wind Chill: 75°   Ceiling: 2500
Heat Index: 75°   Visibility: 6mi
Dew Point: 64°   Wind: 5mph
Humidity: 69%   Direction: 30°NNE
Pressure: NA   Gusts: NA
Location:  21.98°S, 44.93°W
Report Text: SBGW 261800Z 03004KT 9999 -TSRA BKN025 FEW030CB BKN100 24/18 Q1014
Loading
Personal Weather Stations






























Interactive Weather Map New forecast layout! Learn more

10-Day Weather Forecast

Advertisements
Track Severe Weather on mobile